createdAt,value
2023-06-24T00:05:17.851Z,11.38
2023-06-24T00:07:46.645Z,9.38
2023-06-24T00:10:17.340Z,9.20
2023-06-24T00:12:47.825Z,9.50
2023-06-24T00:15:16.000Z,11.93
2023-06-24T00:17:44.668Z,11.68
2023-06-24T00:20:16.238Z,11.27
2023-06-24T00:22:49.472Z,11.47
2023-06-24T00:25:19.032Z,10.75
2023-06-24T00:27:47.536Z,10.65
2023-06-24T00:30:16.788Z,11.05
2023-06-24T00:32:45.456Z,9.48
2023-06-24T00:35:15.187Z,10.98
2023-06-24T00:37:47.632Z,9.73
2023-06-24T00:42:47.237Z,11.88
2023-06-24T00:45:18.569Z,10.00
2023-06-24T00:47:47.075Z,9.85
2023-06-24T00:50:15.193Z,16.05
2023-06-24T00:52:44.126Z,9.13
2023-06-24T00:55:14.118Z,10.30
2023-06-24T00:57:45.777Z,8.88
2023-06-24T01:00:18.510Z,9.15
2023-06-24T01:02:46.929Z,10.25
2023-06-24T01:05:15.671Z,10.75
2023-06-24T01:07:44.291Z,13.10
2023-06-24T01:10:13.814Z,9.00
2023-06-24T01:12:45.071Z,11.98
2023-06-24T01:15:15.409Z,9.68
2023-06-24T01:17:47.704Z,10.23
2023-06-24T01:20:23.851Z,13.32
2023-06-24T01:23:49.695Z,10.98
2023-06-24T01:26:34.575Z,12.30
2023-06-24T01:29:46.019Z,10.45
2023-06-24T01:32:19.259Z,11.52
2023-06-24T01:34:54.722Z,11.40
2023-06-24T01:37:28.530Z,9.40
2023-06-24T01:40:07.840Z,10.70
2023-06-24T01:42:37.964Z,11.13
2023-06-24T01:45:08.677Z,10.52
2023-06-24T01:47:39.227Z,11.43
2023-06-24T01:50:09.622Z,12.05
2023-06-24T01:52:37.828Z,9.30
2023-06-24T01:55:09.739Z,11.68
2023-06-24T01:57:39.707Z,11.05
2023-06-24T02:00:11.471Z,10.25
2023-06-24T02:02:54.523Z,10.68
2023-06-24T02:05:23.577Z,10.80
2023-06-24T02:07:52.956Z,12.48
2023-06-24T02:10:21.425Z,13.50
2023-06-24T02:12:51.751Z,9.82
2023-06-24T02:15:21.859Z,10.23
2023-06-24T02:17:52.978Z,10.40
2023-06-24T02:20:22.764Z,13.07
2023-06-24T02:22:52.652Z,12.27
2023-06-24T02:25:22.723Z,10.50
2023-06-24T02:27:52.118Z,12.27
2023-06-24T02:30:20.284Z,11.23
2023-06-24T02:32:49.005Z,10.20
2023-06-24T02:35:20.417Z,15.85
2023-06-24T02:37:48.882Z,12.27
2023-06-24T02:40:18.631Z,9.93
2023-06-24T02:42:46.733Z,14.13
2023-06-24T02:45:17.072Z,15.18
2023-06-24T02:47:47.470Z,11.98
2023-06-24T02:50:16.552Z,13.55
2023-06-24T02:52:46.737Z,11.18
2023-06-24T02:55:17.873Z,11.60
2023-06-24T02:57:52.607Z,16.00
2023-06-24T03:00:57.404Z,12.30
2023-06-24T03:03:35.220Z,10.05
2023-06-24T03:06:04.374Z,13.23
2023-06-24T03:08:34.910Z,14.40
2023-06-24T03:11:03.126Z,11.43
2023-06-24T03:13:32.684Z,11.20
2023-06-24T03:16:14.793Z,13.50
2023-06-24T03:18:51.030Z,12.13
2023-06-24T03:21:19.545Z,11.55
2023-06-24T03:23:49.507Z,15.48
2023-06-24T03:26:18.363Z,17.08
2023-06-24T03:28:46.905Z,10.73
2023-06-24T03:31:18.902Z,10.88
2023-06-24T03:33:47.871Z,12.18
2023-06-24T03:36:17.822Z,12.20
2023-06-24T03:38:46.570Z,10.45
2023-06-24T03:41:16.072Z,14.02
2023-06-24T03:43:46.018Z,13.18
2023-06-24T03:46:14.776Z,12.32
2023-06-24T03:48:42.952Z,15.32
2023-06-24T03:51:11.782Z,12.95
2023-06-24T03:53:40.696Z,13.27
2023-06-24T03:56:09.232Z,15.85
2023-06-24T03:58:38.802Z,12.55
2023-06-24T04:01:07.393Z,12.85
2023-06-24T04:03:35.881Z,11.15
2023-06-24T04:06:04.226Z,11.35
2023-06-24T04:08:32.309Z,13.18
2023-06-24T04:11:04.304Z,13.73
2023-06-24T04:13:34.732Z,12.05
2023-06-24T04:16:05.532Z,15.60
2023-06-24T04:18:33.729Z,15.27
2023-06-24T04:21:02.310Z,12.85
2023-06-24T04:23:30.752Z,12.25
2023-06-24T04:25:59.282Z,11.75
2023-06-24T04:28:27.615Z,11.93
2023-06-24T04:30:56.774Z,14.68
2023-06-24T04:33:26.406Z,14.25
2023-06-24T04:35:57.622Z,12.40
2023-06-24T04:38:26.681Z,12.10
2023-06-24T04:40:56.092Z,13.88
2023-06-24T04:43:24.615Z,13.50
2023-06-24T04:45:56.088Z,12.82
2023-06-24T04:48:26.656Z,16.15
2023-06-24T04:50:55.905Z,15.90
2023-06-24T04:53:24.793Z,16.20
2023-06-24T04:55:53.386Z,15.90
2023-06-24T04:58:22.826Z,14.02
2023-06-24T05:00:51.364Z,14.15
2023-06-24T05:03:19.862Z,13.60
2023-06-24T05:05:49.529Z,13.23
2023-06-24T05:08:17.767Z,16.25
2023-06-24T05:10:46.331Z,12.90
2023-06-24T05:13:14.442Z,12.73
2023-06-24T05:15:42.849Z,14.65
2023-06-24T05:18:10.927Z,14.25
2023-06-24T05:20:38.990Z,12.82
2023-06-24T05:23:10.349Z,16.38
2023-06-24T05:25:38.685Z,14.13
2023-06-24T05:28:07.315Z,15.07
2023-06-24T05:30:35.665Z,17.65
2023-06-24T05:33:04.389Z,14.82
2023-06-24T05:35:32.780Z,16.70
2023-06-24T05:38:00.969Z,13.27
2023-06-24T05:40:30.534Z,17.17
2023-06-24T05:42:58.828Z,15.63
2023-06-24T05:45:27.054Z,14.43
2023-06-24T05:47:55.899Z,16.85
2023-06-24T05:50:25.823Z,16.75
2023-06-24T05:52:54.205Z,12.55
2023-06-24T05:55:22.703Z,16.70
2023-06-24T05:57:52.367Z,18.92
2023-06-24T06:00:21.417Z,16.85
2023-06-24T06:02:49.846Z,16.40
2023-06-24T06:05:18.202Z,15.15
2023-06-24T06:07:48.096Z,30.63
2023-06-24T06:10:18.470Z,12.70
2023-06-24T06:12:46.797Z,11.30
2023-06-24T06:15:16.599Z,13.98
2023-06-24T06:17:44.745Z,10.63
2023-06-24T06:20:13.814Z,13.07
2023-06-24T06:22:42.108Z,13.55
2023-06-24T06:25:10.870Z,11.18
2023-06-24T06:27:39.244Z,14.35
2023-06-24T06:30:09.163Z,16.50
2023-06-24T06:32:39.135Z,13.27
2023-06-24T06:35:08.500Z,11.90
2023-06-24T06:37:36.983Z,14.55
2023-06-24T06:40:06.289Z,11.32
2023-06-24T06:42:34.532Z,15.27
2023-06-24T06:45:03.821Z,15.77
2023-06-24T06:47:32.455Z,14.07
2023-06-24T06:50:01.882Z,11.88
2023-06-24T06:52:30.538Z,12.90
2023-06-24T06:54:59.260Z,12.25
2023-06-24T06:57:28.706Z,11.93
2023-06-24T06:59:58.050Z,12.43
2023-06-24T07:02:26.616Z,14.05
2023-06-24T07:04:54.940Z,12.35
2023-06-24T07:07:24.502Z,12.88
2023-06-24T07:09:53.372Z,14.48
2023-06-24T07:12:22.089Z,12.57
2023-06-24T07:14:52.483Z,16.65
2023-06-24T07:17:20.623Z,14.70
2023-06-24T07:19:48.982Z,13.95
2023-06-24T07:22:17.598Z,14.65
2023-06-24T07:24:47.321Z,16.95
2023-06-24T07:27:15.567Z,17.00
2023-06-24T07:29:43.807Z,13.50
2023-06-24T07:32:12.074Z,17.08
2023-06-24T07:34:40.813Z,16.20
2023-06-24T07:37:22.820Z,15.00
2023-06-24T07:39:53.428Z,19.63
2023-06-24T07:42:21.954Z,20.60
2023-06-24T07:44:50.505Z,17.10
2023-06-24T07:47:20.529Z,15.90
2023-06-24T07:49:48.957Z,15.65
2023-06-24T07:52:17.468Z,17.48
2023-06-24T07:54:45.846Z,15.25
2023-06-24T07:57:15.710Z,16.17
2023-06-24T07:59:45.547Z,21.33
2023-06-24T08:02:14.026Z,19.08
2023-06-24T08:04:42.299Z,23.35
2023-06-24T08:07:11.638Z,24.38
2023-06-24T08:09:40.102Z,22.35
2023-06-24T08:12:08.901Z,21.73
2023-06-24T08:14:38.377Z,17.63
2023-06-24T08:17:06.746Z,18.80
2023-06-24T08:19:35.487Z,22.40
2023-06-24T08:22:03.894Z,21.38
2023-06-24T08:24:32.271Z,17.55
2023-06-24T08:27:19.603Z,17.38
2023-06-24T08:30:05.678Z,16.20
2023-06-24T08:32:34.137Z,17.60
2023-06-24T08:35:02.181Z,17.23
2023-06-24T08:37:30.405Z,17.58
2023-06-24T08:39:58.538Z,16.23
2023-06-24T08:42:27.603Z,18.80
2023-06-24T08:44:55.650Z,13.05
2023-06-24T08:47:26.652Z,12.40
2023-06-24T08:49:58.419Z,11.82
2023-06-24T08:52:29.181Z,19.83
2023-06-24T08:54:59.364Z,11.88
2023-06-24T08:57:27.787Z,13.65
2023-06-24T08:59:56.130Z,12.60
2023-06-24T09:02:26.305Z,14.65
2023-06-24T09:04:55.290Z,14.20
2023-06-24T09:07:29.543Z,11.32
2023-06-24T09:09:58.213Z,11.93
2023-06-24T09:12:27.893Z,13.68
2023-06-24T09:14:55.992Z,12.98
2023-06-24T09:17:27.053Z,14.98
2023-06-24T09:20:06.891Z,17.08
2023-06-24T09:22:35.276Z,11.85
2023-06-24T09:25:04.285Z,13.90
2023-06-24T09:27:34.243Z,13.70
2023-06-24T09:30:02.525Z,10.10
2023-06-24T09:32:34.836Z,10.35
2023-06-24T09:35:07.352Z,10.52
2023-06-24T09:37:36.009Z,8.35
2023-06-24T09:40:06.474Z,8.80
2023-06-24T09:42:35.001Z,15.20
2023-06-24T09:45:08.059Z,10.80
2023-06-24T09:47:38.049Z,11.82
2023-06-24T09:50:06.888Z,10.10
2023-06-24T09:52:37.581Z,9.18
2023-06-24T09:55:06.542Z,12.43
2023-06-24T09:57:35.106Z,10.50
2023-06-24T10:00:04.490Z,9.75
2023-06-24T10:02:34.729Z,14.50
2023-06-24T10:05:04.310Z,7.30
2023-06-24T20:04:33.635Z,8.70
2023-06-24T20:07:02.644Z,12.50
2023-06-24T20:09:31.667Z,8.57
2023-06-24T20:11:59.882Z,12.10
2023-06-24T20:14:28.089Z,8.40
2023-06-24T20:16:56.542Z,11.77
2023-06-24T20:19:24.878Z,12.15
2023-06-24T20:21:54.910Z,8.80
2023-06-24T20:24:23.278Z,9.73
2023-06-24T20:26:52.649Z,8.35
2023-06-24T20:29:21.008Z,9.02
2023-06-24T20:31:49.119Z,8.77
2023-06-24T20:34:17.340Z,7.07
2023-06-24T20:36:45.475Z,8.43
2023-06-24T20:39:15.247Z,6.82
2023-06-24T20:41:43.425Z,8.43
2023-06-24T20:44:11.978Z,7.45
2023-06-24T20:46:40.978Z,9.30
2023-06-24T20:49:09.794Z,8.13
2023-06-24T20:51:40.423Z,7.93
2023-06-24T20:54:08.615Z,7.22
2023-06-24T20:56:38.585Z,10.13
2023-06-24T20:59:07.301Z,6.82
2023-06-24T21:01:37.319Z,7.32
2023-06-24T21:04:06.040Z,8.02
2023-06-24T21:06:34.226Z,8.45
2023-06-24T21:09:02.594Z,8.00
2023-06-24T21:11:31.004Z,8.13
2023-06-24T21:14:00.758Z,6.53
2023-06-24T21:25:02.707Z,5.85
2023-06-24T21:27:47.072Z,6.50
2023-06-24T21:30:37.895Z,5.90
2023-06-24T21:33:07.531Z,6.65
2023-06-24T21:35:40.760Z,8.10
2023-06-24T21:41:04.133Z,6.65
2023-06-24T21:43:51.454Z,6.28
2023-06-24T21:46:26.589Z,6.53
2023-06-24T21:48:55.369Z,7.35
2023-06-24T21:51:41.519Z,7.00
2023-06-24T21:54:36.224Z,7.93
2023-06-24T21:57:17.433Z,6.35
2023-06-24T21:59:46.639Z,7.57
2023-06-24T22:02:19.191Z,8.88
2023-06-24T22:04:50.830Z,5.85
2023-06-24T22:07:29.230Z,7.68
2023-06-24T22:10:19.792Z,6.00
2023-06-24T22:13:17.092Z,7.93
2023-06-24T22:16:15.346Z,6.20
2023-06-24T22:18:55.650Z,7.90
2023-06-24T22:21:51.589Z,9.82
2023-06-24T22:24:54.465Z,6.05
2023-06-24T23:50:31.121Z,6.30
2023-06-24T23:53:00.877Z,7.53
2023-06-24T23:55:29.231Z,6.78
2023-06-24T23:57:58.187Z,7.22
